sensor_id;sensor_type;location;lat;lon;timestamp;temperature;humidity
34550;DHT22;66080;52.078;5.626;2023-08-08T00:01:24;14.20;99.90
34550;DHT22;66080;52.078;5.626;2023-08-08T00:03:49;14.20;99.90
34550;DHT22;66080;52.078;5.626;2023-08-08T00:06:15;14.20;99.90
34550;DHT22;66080;52.078;5.626;2023-08-08T00:08:41;14.20;99.90
34550;DHT22;66080;52.078;5.626;2023-08-08T00:11:06;14.30;99.90
34550;DHT22;66080;52.078;5.626;2023-08-08T00:13:32;14.30;99.90
34550;DHT22;66080;52.078;5.626;2023-08-08T00:15:58;14.30;99.90
34550;DHT22;66080;52.078;5.626;2023-08-08T00:18:23;14.40;99.90
34550;DHT22;66080;52.078;5.626;2023-08-08T00:20:49;14.40;99.90
34550;DHT22;66080;52.078;5.626;2023-08-08T00:23:14;14.40;99.90
34550;DHT22;66080;52.078;5.626;2023-08-08T00:25:40;14.40;99.90
34550;DHT22;66080;52.078;5.626;2023-08-08T00:28:06;14.50;99.90
34550;DHT22;66080;52.078;5.626;2023-08-08T00:30:32;14.50;99.90
34550;DHT22;66080;52.078;5.626;2023-08-08T00:32:57;14.50;99.90
34550;DHT22;66080;52.078;5.626;2023-08-08T00:35:23;14.50;99.90
34550;DHT22;66080;52.078;5.626;2023-08-08T00:37:49;14.50;99.90
34550;DHT22;66080;52.078;5.626;2023-08-08T00:40:14;14.50;99.90
34550;DHT22;66080;52.078;5.626;2023-08-08T00:42:40;14.50;99.90
34550;DHT22;66080;52.078;5.626;2023-08-08T00:45:06;14.60;99.90
34550;DHT22;66080;52.078;5.626;2023-08-08T00:47:33;14.60;99.90
34550;DHT22;66080;52.078;5.626;2023-08-08T00:50:00;14.60;99.90
34550;DHT22;66080;52.078;5.626;2023-08-08T00:52:26;14.70;99.90
34550;DHT22;66080;52.078;5.626;2023-08-08T00:54:52;14.80;99.90
34550;DHT22;66080;52.078;5.626;2023-08-08T00:57:18;14.80;99.90
34550;DHT22;66080;52.078;5.626;2023-08-08T00:59:44;14.80;99.90
34550;DHT22;66080;52.078;5.626;2023-08-08T01:02:11;14.80;99.90
34550;DHT22;66080;52.078;5.626;2023-08-08T01:04:36;14.70;99.90
34550;DHT22;66080;52.078;5.626;2023-08-08T01:07:10;14.70;99.90
34550;DHT22;66080;52.078;5.626;2023-08-08T01:09:44;14.70;99.90
34550;DHT22;66080;52.078;5.626;2023-08-08T01:12:13;14.70;99.90
34550;DHT22;66080;52.078;5.626;2023-08-08T01:14:41;14.70;99.90
34550;DHT22;66080;52.078;5.626;2023-08-08T01:17:08;14.70;99.90
34550;DHT22;66080;52.078;5.626;2023-08-08T01:19:35;14.70;99.90
34550;DHT22;66080;52.078;5.626;2023-08-08T01:22:04;14.70;99.90
34550;DHT22;66080;52.078;5.626;2023-08-08T01:24:31;14.70;99.90
34550;DHT22;66080;52.078;5.626;2023-08-08T01:27:00;14.70;99.90
34550;DHT22;66080;52.078;5.626;2023-08-08T01:29:26;14.70;99.90
34550;DHT22;66080;52.078;5.626;2023-08-08T01:31:53;14.70;99.90
34550;DHT22;66080;52.078;5.626;2023-08-08T01:34:18;14.80;99.90
34550;DHT22;66080;52.078;5.626;2023-08-08T01:39:20;14.80;99.90
34550;DHT22;66080;52.078;5.626;2023-08-08T01:41:48;14.70;99.90
34550;DHT22;66080;52.078;5.626;2023-08-08T01:44:14;14.70;99.90
34550;DHT22;66080;52.078;5.626;2023-08-08T01:46:40;14.60;99.90
34550;DHT22;66080;52.078;5.626;2023-08-08T01:49:06;14.60;99.90
34550;DHT22;66080;52.078;5.626;2023-08-08T01:51:31;14.60;99.90
34550;DHT22;66080;52.078;5.626;2023-08-08T01:53:57;14.60;99.90
34550;DHT22;66080;52.078;5.626;2023-08-08T01:56:23;14.60;99.90
34550;DHT22;66080;52.078;5.626;2023-08-08T01:58:48;14.60;99.90
34550;DHT22;66080;52.078;5.626;2023-08-08T02:01:14;14.60;99.90
34550;DHT22;66080;52.078;5.626;2023-08-08T02:03:39;14.60;99.90
34550;DHT22;66080;52.078;5.626;2023-08-08T02:06:05;14.60;99.90
34550;DHT22;66080;52.078;5.626;2023-08-08T02:08:30;14.60;99.90
34550;DHT22;66080;52.078;5.626;2023-08-08T02:10:56;14.50;99.90
34550;DHT22;66080;52.078;5.626;2023-08-08T02:13:21;14.50;99.90
34550;DHT22;66080;52.078;5.626;2023-08-08T02:15:47;14.60;99.90
34550;DHT22;66080;52.078;5.626;2023-08-08T02:18:13;14.60;99.90
34550;DHT22;66080;52.078;5.626;2023-08-08T02:20:38;14.60;99.90
34550;DHT22;66080;52.078;5.626;2023-08-08T02:23:04;14.60;99.90
34550;DHT22;66080;52.078;5.626;2023-08-08T02:25:30;14.50;99.90
34550;DHT22;66080;52.078;5.626;2023-08-08T02:27:56;14.40;99.90
34550;DHT22;66080;52.078;5.626;2023-08-08T02:30:22;14.40;99.90
34550;DHT22;66080;52.078;5.626;2023-08-08T02:32:47;14.40;99.90
34550;DHT22;66080;52.078;5.626;2023-08-08T02:35:14;14.50;99.90
34550;DHT22;66080;52.078;5.626;2023-08-08T02:37:40;14.50;99.90
34550;DHT22;66080;52.078;5.626;2023-08-08T02:40:06;14.40;99.90
34550;DHT22;66080;52.078;5.626;2023-08-08T02:42:33;14.40;99.90
34550;DHT22;66080;52.078;5.626;2023-08-08T02:44:58;14.40;99.90
34550;DHT22;66080;52.078;5.626;2023-08-08T02:47:24;14.40;99.90
34550;DHT22;66080;52.078;5.626;2023-08-08T02:49:50;14.30;99.90
34550;DHT22;66080;52.078;5.626;2023-08-08T02:52:16;14.30;99.90
34550;DHT22;66080;52.078;5.626;2023-08-08T02:54:41;14.30;99.90
34550;DHT22;66080;52.078;5.626;2023-08-08T02:57:07;14.30;99.90
34550;DHT22;66080;52.078;5.626;2023-08-08T02:59:36;14.30;99.90
34550;DHT22;66080;52.078;5.626;2023-08-08T03:02:01;14.30;99.90
34550;DHT22;66080;52.078;5.626;2023-08-08T03:04:28;14.20;99.90
34550;DHT22;66080;52.078;5.626;2023-08-08T03:06:54;14.20;99.90
34550;DHT22;66080;52.078;5.626;2023-08-08T03:09:20;14.20;99.90
34550;DHT22;66080;52.078;5.626;2023-08-08T03:11:45;14.30;99.90
34550;DHT22;66080;52.078;5.626;2023-08-08T03:14:11;14.20;99.90
34550;DHT22;66080;52.078;5.626;2023-08-08T03:16:36;14.20;99.90
34550;DHT22;66080;52.078;5.626;2023-08-08T03:19:02;14.20;99.90
34550;DHT22;66080;52.078;5.626;2023-08-08T03:21:28;14.20;99.90
34550;DHT22;66080;52.078;5.626;2023-08-08T03:23:54;14.20;99.90
34550;DHT22;66080;52.078;5.626;2023-08-08T03:26:19;14.20;99.90
34550;DHT22;66080;52.078;5.626;2023-08-08T03:28:45;14.20;99.90
34550;DHT22;66080;52.078;5.626;2023-08-08T03:31:10;14.20;99.90
34550;DHT22;66080;52.078;5.626;2023-08-08T03:33:36;14.30;99.90
34550;DHT22;66080;52.078;5.626;2023-08-08T03:36:02;14.20;99.90
34550;DHT22;66080;52.078;5.626;2023-08-08T03:38:27;14.30;99.90
34550;DHT22;66080;52.078;5.626;2023-08-08T03:40:53;14.20;99.90
34550;DHT22;66080;52.078;5.626;2023-08-08T03:43:18;14.20;99.90
34550;DHT22;66080;52.078;5.626;2023-08-08T03:45:44;14.30;99.90
34550;DHT22;66080;52.078;5.626;2023-08-08T03:48:10;14.30;99.90
34550;DHT22;66080;52.078;5.626;2023-08-08T03:50:36;14.30;99.90
34550;DHT22;66080;52.078;5.626;2023-08-08T03:53:02;14.30;99.90
34550;DHT22;66080;52.078;5.626;2023-08-08T03:55:27;14.30;99.90
34550;DHT22;66080;52.078;5.626;2023-08-08T03:57:53;14.30;99.90
34550;DHT22;66080;52.078;5.626;2023-08-08T04:00:18;14.30;99.90
34550;DHT22;66080;52.078;5.626;2023-08-08T04:02:44;14.30;99.90
34550;DHT22;66080;52.078;5.626;2023-08-08T04:05:09;14.30;99.90
34550;DHT22;66080;52.078;5.626;2023-08-08T04:07:35;14.30;99.90
34550;DHT22;66080;52.078;5.626;2023-08-08T04:10:01;14.30;99.90
34550;DHT22;66080;52.078;5.626;2023-08-08T04:12:26;14.30;99.90
34550;DHT22;66080;52.078;5.626;2023-08-08T04:14:52;14.20;99.90
34550;DHT22;66080;52.078;5.626;2023-08-08T04:17:18;14.30;99.90
34550;DHT22;66080;52.078;5.626;2023-08-08T04:19:43;14.20;99.90
34550;DHT22;66080;52.078;5.626;2023-08-08T04:22:09;14.20;99.90
34550;DHT22;66080;52.078;5.626;2023-08-08T04:24:34;14.20;99.90
34550;DHT22;66080;52.078;5.626;2023-08-08T04:27:00;14.20;99.90
34550;DHT22;66080;52.078;5.626;2023-08-08T04:29:25;14.20;99.90
34550;DHT22;66080;52.078;5.626;2023-08-08T04:31:51;14.20;99.90
34550;DHT22;66080;52.078;5.626;2023-08-08T04:34:17;14.10;99.90
34550;DHT22;66080;52.078;5.626;2023-08-08T04:36:42;14.10;99.90
34550;DHT22;66080;52.078;5.626;2023-08-08T04:39:08;14.10;99.90
34550;DHT22;66080;52.078;5.626;2023-08-08T04:41:34;14.00;99.90
34550;DHT22;66080;52.078;5.626;2023-08-08T04:43:59;14.00;99.90
34550;DHT22;66080;52.078;5.626;2023-08-08T04:46:25;14.00;99.90
34550;DHT22;66080;52.078;5.626;2023-08-08T04:48:50;14.10;99.90
34550;DHT22;66080;52.078;5.626;2023-08-08T04:51:16;14.10;99.90
34550;DHT22;66080;52.078;5.626;2023-08-08T04:53:41;14.10;99.90
34550;DHT22;66080;52.078;5.626;2023-08-08T04:56:07;14.20;99.90
34550;DHT22;66080;52.078;5.626;2023-08-08T04:58:32;14.10;99.90
34550;DHT22;66080;52.078;5.626;2023-08-08T05:00:58;14.20;99.90
34550;DHT22;66080;52.078;5.626;2023-08-08T05:03:24;14.20;99.90
34550;DHT22;66080;52.078;5.626;2023-08-08T05:05:49;14.20;99.90
34550;DHT22;66080;52.078;5.626;2023-08-08T05:08:15;14.20;99.90
34550;DHT22;66080;52.078;5.626;2023-08-08T05:10:40;14.20;99.90
34550;DHT22;66080;52.078;5.626;2023-08-08T05:13:06;14.20;99.90
34550;DHT22;66080;52.078;5.626;2023-08-08T05:15:32;14.30;99.90
34550;DHT22;66080;52.078;5.626;2023-08-08T05:17:57;14.20;99.90
34550;DHT22;66080;52.078;5.626;2023-08-08T05:20:24;14.20;99.90
34550;DHT22;66080;52.078;5.626;2023-08-08T05:22:50;14.30;99.90
34550;DHT22;66080;52.078;5.626;2023-08-08T05:25:16;14.30;99.90
34550;DHT22;66080;52.078;5.626;2023-08-08T05:27:41;14.30;99.90
34550;DHT22;66080;52.078;5.626;2023-08-08T05:30:07;14.40;99.90
34550;DHT22;66080;52.078;5.626;2023-08-08T05:32:33;14.30;99.90
34550;DHT22;66080;52.078;5.626;2023-08-08T05:34:58;14.40;99.90
34550;DHT22;66080;52.078;5.626;2023-08-08T05:37:26;14.50;99.90
34550;DHT22;66080;52.078;5.626;2023-08-08T05:39:51;14.50;99.90
34550;DHT22;66080;52.078;5.626;2023-08-08T05:42:17;14.50;99.90
34550;DHT22;66080;52.078;5.626;2023-08-08T05:44:43;14.50;99.90
34550;DHT22;66080;52.078;5.626;2023-08-08T05:47:09;14.50;99.90
34550;DHT22;66080;52.078;5.626;2023-08-08T05:49:34;14.50;99.90
34550;DHT22;66080;52.078;5.626;2023-08-08T05:52:00;14.60;99.90
34550;DHT22;66080;52.078;5.626;2023-08-08T05:54:26;14.60;99.90
34550;DHT22;66080;52.078;5.626;2023-08-08T05:56:52;14.60;99.90
34550;DHT22;66080;52.078;5.626;2023-08-08T05:59:18;14.60;99.90
34550;DHT22;66080;52.078;5.626;2023-08-08T06:01:44;14.60;99.90
34550;DHT22;66080;52.078;5.626;2023-08-08T06:04:10;14.60;99.90
34550;DHT22;66080;52.078;5.626;2023-08-08T06:06:35;14.70;99.90
34550;DHT22;66080;52.078;5.626;2023-08-08T06:09:01;14.80;99.90
34550;DHT22;66080;52.078;5.626;2023-08-08T06:11:26;14.90;99.90
34550;DHT22;66080;52.078;5.626;2023-08-08T06:13:52;14.90;99.90
34550;DHT22;66080;52.078;5.626;2023-08-08T06:16:19;15.00;99.90
34550;DHT22;66080;52.078;5.626;2023-08-08T06:18:45;15.00;99.90
34550;DHT22;66080;52.078;5.626;2023-08-08T06:21:11;15.00;99.90
34550;DHT22;66080;52.078;5.626;2023-08-08T06:23:36;15.10;99.90
34550;DHT22;66080;52.078;5.626;2023-08-08T06:26:02;15.10;99.90
34550;DHT22;66080;52.078;5.626;2023-08-08T06:28:27;15.20;99.90
34550;DHT22;66080;52.078;5.626;2023-08-08T06:30:56;15.20;99.90
34550;DHT22;66080;52.078;5.626;2023-08-08T06:33:21;15.30;99.90
34550;DHT22;66080;52.078;5.626;2023-08-08T06:35:47;15.40;99.90
34550;DHT22;66080;52.078;5.626;2023-08-08T06:38:12;15.40;99.90
34550;DHT22;66080;52.078;5.626;2023-08-08T06:40:38;15.50;99.90
34550;DHT22;66080;52.078;5.626;2023-08-08T06:43:04;15.50;99.90
34550;DHT22;66080;52.078;5.626;2023-08-08T06:45:29;15.60;99.90
34550;DHT22;66080;52.078;5.626;2023-08-08T06:47:55;15.70;99.90
34550;DHT22;66080;52.078;5.626;2023-08-08T06:50:20;15.70;99.90
34550;DHT22;66080;52.078;5.626;2023-08-08T06:52:46;15.70;99.90
34550;DHT22;66080;52.078;5.626;2023-08-08T06:55:11;15.80;99.90
34550;DHT22;66080;52.078;5.626;2023-08-08T06:57:37;15.80;99.90
34550;DHT22;66080;52.078;5.626;2023-08-08T07:00:03;15.80;99.90
34550;DHT22;66080;52.078;5.626;2023-08-08T07:02:31;15.80;99.90
34550;DHT22;66080;52.078;5.626;2023-08-08T07:04:57;15.90;99.90
34550;DHT22;66080;52.078;5.626;2023-08-08T07:07:23;16.00;99.90
34550;DHT22;66080;52.078;5.626;2023-08-08T07:09:48;16.00;99.90
34550;DHT22;66080;52.078;5.626;2023-08-08T07:12:14;16.20;99.90
34550;DHT22;66080;52.078;5.626;2023-08-08T07:14:39;16.20;99.90
34550;DHT22;66080;52.078;5.626;2023-08-08T07:17:05;16.30;99.90
34550;DHT22;66080;52.078;5.626;2023-08-08T07:19:31;16.30;99.90
34550;DHT22;66080;52.078;5.626;2023-08-08T07:21:56;16.30;99.90
34550;DHT22;66080;52.078;5.626;2023-08-08T07:24:22;16.40;99.90
34550;DHT22;66080;52.078;5.626;2023-08-08T07:26:51;16.40;99.90
34550;DHT22;66080;52.078;5.626;2023-08-08T07:29:17;16.40;99.90
34550;DHT22;66080;52.078;5.626;2023-08-08T07:31:43;16.50;99.90
34550;DHT22;66080;52.078;5.626;2023-08-08T07:34:08;16.70;99.90
34550;DHT22;66080;52.078;5.626;2023-08-08T07:36:34;16.70;99.90
34550;DHT22;66080;52.078;5.626;2023-08-08T07:38:59;16.80;99.90
34550;DHT22;66080;52.078;5.626;2023-08-08T07:41:29;16.70;98.90
34550;DHT22;66080;52.078;5.626;2023-08-08T07:43:55;16.80;98.90
34550;DHT22;66080;52.078;5.626;2023-08-08T07:46:21;16.90;98.80
34550;DHT22;66080;52.078;5.626;2023-08-08T07:48:46;17.00;98.70
34550;DHT22;66080;52.078;5.626;2023-08-08T07:51:12;17.00;98.60
34550;DHT22;66080;52.078;5.626;2023-08-08T07:53:37;17.10;98.10
34550;DHT22;66080;52.078;5.626;2023-08-08T07:56:03;17.20;98.60
34550;DHT22;66080;52.078;5.626;2023-08-08T07:58:28;17.20;96.70
34550;DHT22;66080;52.078;5.626;2023-08-08T08:00:54;17.30;97.90
34550;DHT22;66080;52.078;5.626;2023-08-08T08:03:20;17.40;97.50
34550;DHT22;66080;52.078;5.626;2023-08-08T08:05:46;17.50;95.60
34550;DHT22;66080;52.078;5.626;2023-08-08T08:08:12;17.30;94.70
34550;DHT22;66080;52.078;5.626;2023-08-08T08:10:37;17.20;92.90
34550;DHT22;66080;52.078;5.626;2023-08-08T08:13:03;17.40;95.10
34550;DHT22;66080;52.078;5.626;2023-08-08T08:15:28;17.50;93.50
34550;DHT22;66080;52.078;5.626;2023-08-08T08:17:54;17.50;93.90
34550;DHT22;66080;52.078;5.626;2023-08-08T08:20:20;17.70;93.90
34550;DHT22;66080;52.078;5.626;2023-08-08T08:22:46;17.50;93.30
34550;DHT22;66080;52.078;5.626;2023-08-08T08:25:14;17.50;93.10
34550;DHT22;66080;52.078;5.626;2023-08-08T08:27:39;17.60;93.60
34550;DHT22;66080;52.078;5.626;2023-08-08T08:30:06;17.80;93.30
34550;DHT22;66080;52.078;5.626;2023-08-08T08:32:36;18.00;92.10
34550;DHT22;66080;52.078;5.626;2023-08-08T08:35:02;17.80;90.60
34550;DHT22;66080;52.078;5.626;2023-08-08T08:37:32;17.90;92.30
34550;DHT22;66080;52.078;5.626;2023-08-08T08:39:58;18.00;91.00
34550;DHT22;66080;52.078;5.626;2023-08-08T08:42:23;18.10;91.50
34550;DHT22;66080;52.078;5.626;2023-08-08T08:44:50;18.30;92.10
34550;DHT22;66080;52.078;5.626;2023-08-08T08:47:19;18.50;91.80
34550;DHT22;66080;52.078;5.626;2023-08-08T08:49:45;18.40;87.70
34550;DHT22;66080;52.078;5.626;2023-08-08T08:52:11;18.40;86.80
34550;DHT22;66080;52.078;5.626;2023-08-08T08:54:37;18.40;88.80
34550;DHT22;66080;52.078;5.626;2023-08-08T08:57:02;18.70;90.00
34550;DHT22;66080;52.078;5.626;2023-08-08T08:59:29;18.50;86.50
34550;DHT22;66080;52.078;5.626;2023-08-08T09:01:55;18.50;89.30
34550;DHT22;66080;52.078;5.626;2023-08-08T09:04:22;18.40;88.40
34550;DHT22;66080;52.078;5.626;2023-08-08T09:06:48;18.10;85.70
34550;DHT22;66080;52.078;5.626;2023-08-08T09:09:15;18.10;87.00
34550;DHT22;66080;52.078;5.626;2023-08-08T09:11:46;18.20;82.60
34550;DHT22;66080;52.078;5.626;2023-08-08T09:14:20;18.30;87.10
34550;DHT22;66080;52.078;5.626;2023-08-08T09:16:47;18.30;86.10
34550;DHT22;66080;52.078;5.626;2023-08-08T09:19:14;18.50;88.40
34550;DHT22;66080;52.078;5.626;2023-08-08T09:21:39;18.40;85.60
34550;DHT22;66080;52.078;5.626;2023-08-08T09:24:05;18.50;85.40
34550;DHT22;66080;52.078;5.626;2023-08-08T09:26:32;18.40;84.70
34550;DHT22;66080;52.078;5.626;2023-08-08T09:28:57;18.40;86.90
34550;DHT22;66080;52.078;5.626;2023-08-08T09:31:26;18.30;85.50
34550;DHT22;66080;52.078;5.626;2023-08-08T09:33:54;18.40;85.00
34550;DHT22;66080;52.078;5.626;2023-08-08T09:36:19;18.20;81.30
34550;DHT22;66080;52.078;5.626;2023-08-08T09:38:46;18.10;82.30
34550;DHT22;66080;52.078;5.626;2023-08-08T09:41:11;18.40;82.70
34550;DHT22;66080;52.078;5.626;2023-08-08T09:43:37;18.50;83.10
34550;DHT22;66080;52.078;5.626;2023-08-08T09:46:03;18.60;83.30
34550;DHT22;66080;52.078;5.626;2023-08-08T09:48:32;18.50;82.90
34550;DHT22;66080;52.078;5.626;2023-08-08T09:50:58;18.60;80.60
34550;DHT22;66080;52.078;5.626;2023-08-08T09:53:26;18.70;81.80
34550;DHT22;66080;52.078;5.626;2023-08-08T09:55:54;18.80;82.90
34550;DHT22;66080;52.078;5.626;2023-08-08T09:58:20;18.90;82.20
34550;DHT22;66080;52.078;5.626;2023-08-08T10:00:46;18.90;80.00
34550;DHT22;66080;52.078;5.626;2023-08-08T10:03:13;19.00;81.80
34550;DHT22;66080;52.078;5.626;2023-08-08T10:05:39;19.50;83.10
34550;DHT22;66080;52.078;5.626;2023-08-08T10:08:05;19.70;79.20
34550;DHT22;66080;52.078;5.626;2023-08-08T10:10:31;19.50;77.70
34550;DHT22;66080;52.078;5.626;2023-08-08T10:12:57;19.50;79.20
34550;DHT22;66080;52.078;5.626;2023-08-08T10:15:26;19.40;78.60
34550;DHT22;66080;52.078;5.626;2023-08-08T10:17:56;19.20;77.80
34550;DHT22;66080;52.078;5.626;2023-08-08T10:20:24;19.40;79.70
34550;DHT22;66080;52.078;5.626;2023-08-08T10:22:52;19.20;77.00
34550;DHT22;66080;52.078;5.626;2023-08-08T10:25:25;19.20;79.00
34550;DHT22;66080;52.078;5.626;2023-08-08T10:30:29;18.80;78.10
34550;DHT22;66080;52.078;5.626;2023-08-08T10:32:56;18.50;78.60
34550;DHT22;66080;52.078;5.626;2023-08-08T10:35:22;18.40;79.60
34550;DHT22;66080;52.078;5.626;2023-08-08T10:37:54;18.40;78.50
34550;DHT22;66080;52.078;5.626;2023-08-08T10:40:20;18.50;77.80
34550;DHT22;66080;52.078;5.626;2023-08-08T10:42:46;18.70;78.50
34550;DHT22;66080;52.078;5.626;2023-08-08T10:45:14;18.90;80.10
34550;DHT22;66080;52.078;5.626;2023-08-08T10:47:40;19.10;80.00
34550;DHT22;66080;52.078;5.626;2023-08-08T10:50:11;19.50;77.20
34550;DHT22;66080;52.078;5.626;2023-08-08T10:55:24;19.10;76.10
34550;DHT22;66080;52.078;5.626;2023-08-08T10:58:13;19.00;77.00
34550;DHT22;66080;52.078;5.626;2023-08-08T11:00:41;19.00;75.80
34550;DHT22;66080;52.078;5.626;2023-08-08T11:03:07;19.10;77.20
34550;DHT22;66080;52.078;5.626;2023-08-08T11:05:35;19.00;75.80
34550;DHT22;66080;52.078;5.626;2023-08-08T11:08:02;19.10;75.90
34550;DHT22;66080;52.078;5.626;2023-08-08T11:10:28;19.10;76.10
34550;DHT22;66080;52.078;5.626;2023-08-08T11:13:02;19.20;75.70
34550;DHT22;66080;52.078;5.626;2023-08-08T11:15:29;19.40;76.20
34550;DHT22;66080;52.078;5.626;2023-08-08T11:17:58;19.50;74.00
34550;DHT22;66080;52.078;5.626;2023-08-08T11:20:24;19.50;75.30
34550;DHT22;66080;52.078;5.626;2023-08-08T11:22:56;19.50;75.30
34550;DHT22;66080;52.078;5.626;2023-08-08T11:25:26;19.50;75.30
34550;DHT22;66080;52.078;5.626;2023-08-08T11:27:52;19.60;75.30
34550;DHT22;66080;52.078;5.626;2023-08-08T11:30:19;19.70;76.10
34550;DHT22;66080;52.078;5.626;2023-08-08T11:32:46;19.80;73.40
34550;DHT22;66080;52.078;5.626;2023-08-08T11:35:13;19.60;73.00
34550;DHT22;66080;52.078;5.626;2023-08-08T11:37:40;19.90;76.40
34550;DHT22;66080;52.078;5.626;2023-08-08T11:40:07;20.00;76.10
34550;DHT22;66080;52.078;5.626;2023-08-08T11:42:34;19.80;71.10
34550;DHT22;66080;52.078;5.626;2023-08-08T11:44:59;19.90;74.30
34550;DHT22;66080;52.078;5.626;2023-08-08T11:47:25;20.00;75.00
34550;DHT22;66080;52.078;5.626;2023-08-08T11:49:51;20.10;75.70
34550;DHT22;66080;52.078;5.626;2023-08-08T11:52:20;19.80;71.50
34550;DHT22;66080;52.078;5.626;2023-08-08T11:54:51;19.50;72.20
34550;DHT22;66080;52.078;5.626;2023-08-08T11:57:19;19.60;73.40
34550;DHT22;66080;52.078;5.626;2023-08-08T11:59:48;19.80;74.50
34550;DHT22;66080;52.078;5.626;2023-08-08T12:02:14;20.10;72.00
34550;DHT22;66080;52.078;5.626;2023-08-08T12:04:44;19.90;71.70
34550;DHT22;66080;52.078;5.626;2023-08-08T12:07:10;19.70;71.50
34550;DHT22;66080;52.078;5.626;2023-08-08T12:09:37;19.90;72.40
34550;DHT22;66080;52.078;5.626;2023-08-08T12:12:03;19.80;71.80
34550;DHT22;66080;52.078;5.626;2023-08-08T12:14:29;19.70;74.80
34550;DHT22;66080;52.078;5.626;2023-08-08T12:16:55;19.50;72.20
34550;DHT22;66080;52.078;5.626;2023-08-08T12:19:24;19.70;74.50
34550;DHT22;66080;52.078;5.626;2023-08-08T12:21:51;19.60;73.30
34550;DHT22;66080;52.078;5.626;2023-08-08T12:24:18;19.70;75.30
34550;DHT22;66080;52.078;5.626;2023-08-08T12:26:44;20.10;74.20
34550;DHT22;66080;52.078;5.626;2023-08-08T12:29:09;20.10;72.60
34550;DHT22;66080;52.078;5.626;2023-08-08T12:31:35;20.00;70.20
34550;DHT22;66080;52.078;5.626;2023-08-08T12:34:01;20.00;73.00
34550;DHT22;66080;52.078;5.626;2023-08-08T12:36:26;19.80;72.10
34550;DHT22;66080;52.078;5.626;2023-08-08T12:38:52;19.90;74.60
34550;DHT22;66080;52.078;5.626;2023-08-08T12:41:18;20.10;73.40
34550;DHT22;66080;52.078;5.626;2023-08-08T12:43:43;20.00;72.70
34550;DHT22;66080;52.078;5.626;2023-08-08T12:46:09;20.30;72.00
34550;DHT22;66080;52.078;5.626;2023-08-08T12:48:34;20.40;72.90
34550;DHT22;66080;52.078;5.626;2023-08-08T12:51:00;20.10;72.30
34550;DHT22;66080;52.078;5.626;2023-08-08T12:53:26;20.30;72.60
34550;DHT22;66080;52.078;5.626;2023-08-08T12:55:52;20.50;72.10
34550;DHT22;66080;52.078;5.626;2023-08-08T12:58:17;20.50;73.60
34550;DHT22;66080;52.078;5.626;2023-08-08T13:00:43;20.10;72.40
34550;DHT22;66080;52.078;5.626;2023-08-08T13:03:09;19.70;73.40
34550;DHT22;66080;52.078;5.626;2023-08-08T13:05:35;19.60;73.90
34550;DHT22;66080;52.078;5.626;2023-08-08T13:08:01;19.70;74.10
34550;DHT22;66080;52.078;5.626;2023-08-08T13:10:26;19.50;73.70
34550;DHT22;66080;52.078;5.626;2023-08-08T13:12:52;19.70;74.90
34550;DHT22;66080;52.078;5.626;2023-08-08T13:15:18;20.30;75.50
34550;DHT22;66080;52.078;5.626;2023-08-08T13:17:43;20.50;76.10
34550;DHT22;66080;52.078;5.626;2023-08-08T13:20:09;20.10;72.80
34550;DHT22;66080;52.078;5.626;2023-08-08T13:22:35;20.30;74.80
34550;DHT22;66080;52.078;5.626;2023-08-08T13:25:01;20.30;73.90
34550;DHT22;66080;52.078;5.626;2023-08-08T13:27:26;19.90;74.10
34550;DHT22;66080;52.078;5.626;2023-08-08T13:29:52;19.90;76.00
34550;DHT22;66080;52.078;5.626;2023-08-08T13:32:17;19.70;76.70
34550;DHT22;66080;52.078;5.626;2023-08-08T13:34:43;19.60;73.60
34550;DHT22;66080;52.078;5.626;2023-08-08T13:37:09;19.60;75.40
34550;DHT22;66080;52.078;5.626;2023-08-08T13:39:35;19.80;74.90
34550;DHT22;66080;52.078;5.626;2023-08-08T13:42:00;19.90;73.20
34550;DHT22;66080;52.078;5.626;2023-08-08T13:44:26;20.40;75.10
34550;DHT22;66080;52.078;5.626;2023-08-08T13:46:51;20.30;72.10
34550;DHT22;66080;52.078;5.626;2023-08-08T13:49:17;20.40;73.70
34550;DHT22;66080;52.078;5.626;2023-08-08T13:51:42;21.00;73.40
34550;DHT22;66080;52.078;5.626;2023-08-08T13:54:09;20.80;73.20
34550;DHT22;66080;52.078;5.626;2023-08-08T13:56:34;21.20;70.20
34550;DHT22;66080;52.078;5.626;2023-08-08T13:59:00;21.10;70.60
34550;DHT22;66080;52.078;5.626;2023-08-08T14:01:25;20.60;72.40
34550;DHT22;66080;52.078;5.626;2023-08-08T14:03:51;20.40;73.00
34550;DHT22;66080;52.078;5.626;2023-08-08T14:06:17;20.10;73.70
34550;DHT22;66080;52.078;5.626;2023-08-08T14:08:42;19.70;76.50
34550;DHT22;66080;52.078;5.626;2023-08-08T14:11:08;19.70;75.20
34550;DHT22;66080;52.078;5.626;2023-08-08T14:13:33;19.70;75.90
34550;DHT22;66080;52.078;5.626;2023-08-08T14:16:00;19.80;76.10
34550;DHT22;66080;52.078;5.626;2023-08-08T14:18:26;19.60;76.60
34550;DHT22;66080;52.078;5.626;2023-08-08T14:20:51;19.60;75.20
34550;DHT22;66080;52.078;5.626;2023-08-08T14:23:17;19.70;77.40
34550;DHT22;66080;52.078;5.626;2023-08-08T14:25:43;19.80;75.70
34550;DHT22;66080;52.078;5.626;2023-08-08T14:28:08;19.50;75.20
34550;DHT22;66080;52.078;5.626;2023-08-08T14:30:34;19.30;76.10
34550;DHT22;66080;52.078;5.626;2023-08-08T14:32:59;19.10;76.60
34550;DHT22;66080;52.078;5.626;2023-08-08T14:35:25;18.90;75.70
34550;DHT22;66080;52.078;5.626;2023-08-08T14:37:51;19.00;76.90
34550;DHT22;66080;52.078;5.626;2023-08-08T14:40:16;19.40;77.10
34550;DHT22;66080;52.078;5.626;2023-08-08T14:42:42;19.30;76.10
34550;DHT22;66080;52.078;5.626;2023-08-08T14:45:08;19.20;77.90
34550;DHT22;66080;52.078;5.626;2023-08-08T14:47:33;19.70;76.40
34550;DHT22;66080;52.078;5.626;2023-08-08T14:49:59;20.40;73.20
34550;DHT22;66080;52.078;5.626;2023-08-08T14:52:25;21.20;71.10
34550;DHT22;66080;52.078;5.626;2023-08-08T14:54:51;21.20;69.60
34550;DHT22;66080;52.078;5.626;2023-08-08T14:57:16;20.60;72.00
34550;DHT22;66080;52.078;5.626;2023-08-08T14:59:42;20.80;73.70
34550;DHT22;66080;52.078;5.626;2023-08-08T15:02:08;20.90;72.90
34550;DHT22;66080;52.078;5.626;2023-08-08T15:04:33;21.00;73.40
34550;DHT22;66080;52.078;5.626;2023-08-08T15:06:59;21.20;70.60
34550;DHT22;66080;52.078;5.626;2023-08-08T15:09:24;21.50;68.40
34550;DHT22;66080;52.078;5.626;2023-08-08T15:11:50;21.00;70.60
34550;DHT22;66080;52.078;5.626;2023-08-08T15:14:16;20.90;69.50
34550;DHT22;66080;52.078;5.626;2023-08-08T15:16:41;20.90;69.10
34550;DHT22;66080;52.078;5.626;2023-08-08T15:19:08;20.80;70.90
34550;DHT22;66080;52.078;5.626;2023-08-08T15:21:33;20.70;70.60
34550;DHT22;66080;52.078;5.626;2023-08-08T15:23:59;20.50;71.60
34550;DHT22;66080;52.078;5.626;2023-08-08T15:26:25;20.80;71.90
34550;DHT22;66080;52.078;5.626;2023-08-08T15:28:50;21.00;70.60
34550;DHT22;66080;52.078;5.626;2023-08-08T15:31:16;21.20;69.50